Flight Track Log - Related Links

Times and Time Zones

All times are in EDT time to prevent confusion due to time zone crossing. See the N926AD flight status page for this flight to view local times or setup timezone preferences in your user account.

Time Position Orientation Groundspeed Altitude Reporting Facility
EDT Latitude Longitude Course Direction KTS MPH feet Rate Location/Type
Sat 05:17:46 AM 53.3500 -60.3333 40° Northeast 140 161 1,600  Level Gander Center
Sat 05:18:46 AM 53.3833 -60.2667 50° Northeast 190 219 2,700 1,050 Climbing Gander Center
Sat 05:19:46 AM 53.4000 -60.2167 61° Northeast 200 230 3,700 1,200 Climbing Gander Center
Sat 05:20:46 AM 53.4500 -60.1667 31° Northeast 190 219 5,100 1,400 Climbing Gander Center
Sat 05:21:46 AM 53.4833 -60.1000 50° Northeast 190 219 6,500 1,100 Climbing Gander Center
Sat 05:22:46 AM 53.4833 -60.0167 90° East 180 207 7,300 1,500 Climbing Gander Center
Sat 05:23:00 AM 53.6243 -59.9955 40° Northeast  Level Estimated
Sat 05:24:10 AM 53.5833 -59.9667 17° North 190 219 10,100  Level Gander Center
Sat 05:25:10 AM 53.6333 -59.9000 38° Northeast 190 219 11,500 1,400 Climbing Gander Center
Sat 05:26:10 AM 53.6667 -59.8500 42° Northeast 190 219 12,900 1,400 Climbing Gander Center
Sat 05:27:10 AM 53.7167 -59.7833 38° Northeast 180 207 14,300 1,300 Climbing Gander Center
Sat 05:28:10 AM 53.7500 -59.7333 42° Northeast 170 196 15,500 1,150 Climbing Gander Center
Sat 05:29:10 AM 53.7833 -59.6667 50° Northeast 190 219 16,600 1,000 Climbing Gander Center
Sat 05:30:10 AM 53.8333 -59.6167 31° Northeast 200 230 17,500 1,050 Climbing Gander Center
Sat 05:31:10 AM 53.8833 -59.5500 38° Northeast 210 242 18,700 1,100 Climbing Gander Center
Sat 05:32:10 AM 53.9167 -59.4667 56° Northeast 220 253 19,700 1,000 Climbing Gander Center
Sat 05:33:10 AM 53.9667 -59.4000 38° Northeast 220 253 20,700 900 Climbing Gander Center
Sat 05:34:10 AM 54.0167 -59.3500 30° Northeast 220 253 21,500 750 Climbing Gander Center
Sat 05:35:10 AM 54.0667 -59.2833 38° Northeast 220 253 22,200 750 Climbing Gander Center
Sat 05:36:10 AM 54.1167 -59.2000 44° Northeast 230 265 23,000 750 Climbing Gander Center
Sat 05:37:10 AM 54.1500 -59.1500 41° Northeast 220 253 23,700 750 Climbing Gander Center
Sat 05:38:10 AM 54.2000 -59.0833 38° Northeast 210 242 24,500 650 Climbing Gander Center
Sat 05:39:10 AM 54.2500 -59.0000 44° Northeast 220 253 25,000 550 Climbing Gander Center
Sat 05:40:10 AM 54.3000 -58.9333 38° Northeast 230 265 25,600 500 Climbing Gander Center
Sat 05:41:10 AM 54.3333 -58.8500 56° Northeast 240 276 26,000 500 Climbing Gander Center
Sat 05:42:10 AM 54.3833 -58.7500 49° Northeast 250 288 26,600 500 Climbing Gander Center
Sat 05:43:10 AM 54.4333 -58.7000 30° Northeast 250 288 27,000 200 Climbing Gander Center
Sat 05:44:10 AM 54.5000 -58.6000 41° Northeast 260 299 27,000  Level Gander Center
Sat 05:45:10 AM 54.5500 -58.5167 44° Northeast 270 311 27,000  Level Gander Center
Sat 05:46:10 AM 54.6000 -58.4333 44° Northeast 270 311 27,000  Level Gander Center
Sat 05:47:10 AM 54.6667 -58.3333 41° Northeast 280 322 27,000  Level Gander Center
Sat 05:48:10 AM 54.7333 -58.2500 36° Northeast 280 322 27,000  Level Gander Center
Sat 05:49:10 AM 54.7833 -58.1500 49° Northeast 280 322 27,000  Level Gander Center
Sat 05:50:10 AM 54.8500 -58.0833 30° Northeast 280 322 27,000  Level Gander Center
Sat 05:51:10 AM 54.8833 -58.0000 55° Northeast 280 322 27,000  Level Gander Center
Sat 05:52:10 AM 54.9500 -57.9000 41° Northeast 280 322 27,000  Level Gander Center
Sat 05:53:10 AM 55.0000 -57.8167 44° Northeast 280 322 27,000  Level Gander Center
Sat 05:54:10 AM 55.0667 -57.7167 41° Northeast 280 322 27,000  Level Gander Center
Sat 05:55:10 AM 55.1167 -57.6333 44° Northeast 280 322 27,000  Level Gander Center
Sat 05:56:10 AM 55.1833 -57.5333 41° Northeast 280 322 27,000  Level Gander Center
Sat 05:57:10 AM 55.2333 -57.4500 44° Northeast 280 322 27,000  Level Gander Center
Sat 05:58:10 AM 55.2833 -57.3500 49° Northeast 280 322 27,000  Level Gander Center
Sat 05:59:10 AM 55.3500 -57.2500 40° Northeast 280 322 27,000  Level Gander Center
Sat 06:00:10 AM 55.4000 -57.1667 43° Northeast 280 322 27,000  Level Gander Center
Sat 06:01:10 AM 55.4667 -57.0667 40° Northeast 280 322 27,000  Level Gander Center
Sat 06:02:10 AM 55.5167 -56.9667 49° Northeast 270 311 27,000  Level Gander Center
Sat 06:03:10 AM 55.5667 -56.8833 43° Northeast 270 311 27,000  Level Gander Center
Sat 06:04:10 AM 55.6167 -56.7833 48° Northeast 270 311 27,000  Level Gander Center
Sat 06:05:10 AM 55.6833 -56.6833 40° Northeast 270 311 27,000  Level Gander Center
Sat 06:06:10 AM 55.7333 -56.6000 43° Northeast 270 311 27,000  Level Gander Center
Sat 06:07:10 AM 55.7833 -56.5000 48° Northeast 280 322 27,000  Level Gander Center
Sat 06:08:00 AM 55.5167 -57.0167 45° Northeast 272 313 27,000  Level ETMS Enhanced Traffic Management System
Sat 06:08:10 AM 55.8333 -56.4000 48° Northeast 270 311 27,000  Level Gander Center
Sat 06:09:10 AM 55.8833 -56.3000 45° Northeast 270 311 27,000  Level Gander Center
Sat 06:10:10 AM 55.9333 -56.2167 43° Northeast 270 311 27,000  Level Gander Center
Sat 06:11:10 AM 56.0000 -56.1167 40° Northeast 270 311 27,000  Level Gander Center
Sat 06:12:10 AM 56.0500 -56.0167 48° Northeast 270 311 27,000  Level Gander Center
Sat 06:13:10 AM 56.1000 -55.9500 37° Northeast 270 311 27,000  Level Gander Center
Sat 06:14:10 AM 56.1500 -55.8500 48° Northeast 270 311 27,000  Level Gander Center
Sat 06:15:10 AM 56.2000 -55.7333 52° Northeast 270 311 27,000  Level Gander Center
Sat 06:17:10 AM 56.3000 -55.5667 43° Northeast 270 311 27,000  Level Gander Center
Sat 06:18:10 AM 56.3500 -55.4333 56° Northeast 270 311 27,000  Level Gander Center
Sat 06:19:10 AM 56.4000 -55.3667 36° Northeast 270 311 27,000  Level Gander Center
Sat 06:20:10 AM 56.4667 -55.2667 40° Northeast 260 299 27,000  Level Gander Center
Sat 06:21:10 AM 56.5167 -55.2000 36° Northeast 260 299 27,000  Level Gander Center
Sat 06:22:10 AM 56.5500 -55.1000 59° Northeast 260 299 27,000  Level Gander Center
Sat 06:23:10 AM 56.6167 -55.0000 40° Northeast 260 299 27,000  Level Gander Center
Sat 06:24:10 AM 56.6667 -54.9000 48° Northeast 260 299 27,000  Level Gander Center
Sat 06:25:10 AM 56.7167 -54.8000 48° Northeast 260 299 27,000  Level Gander Center
Sat 06:26:10 AM 56.7667 -54.7000 48° Northeast 270 311 27,000  Level Gander Center
Sat 06:27:10 AM 56.8167 -54.6000 48° Northeast 270 311 27,000  Level Gander Center
Sat 06:28:10 AM 56.8500 -54.4667 65° Northeast 270 311 27,000  Level Gander Center
Sat 06:29:10 AM 56.9167 -54.4000 29° Northeast 270 311 27,000  Level Gander Center
Sat 06:30:10 AM 56.9667 -54.3000 47° Northeast 270 311 27,000  Level Gander Center
Sat 06:31:10 AM 57.0333 -54.2000 39° Northeast 270 311 27,000  Level Gander Center
Sat 06:32:10 AM 57.0667 -54.0667 65° Northeast 270 311 27,000  Level Gander Center
Sat 06:33:10 AM 57.1167 -53.9833 42° Northeast 260 299 27,000  Level Gander Center
Sat 06:34:10 AM 57.1833 -53.8833 39° Northeast 270 311 27,000  Level Gander Center
Sat 06:35:10 AM 57.2167 -53.8167 47° Northeast 270 311 27,000  Level Gander Center
Sat 06:36:10 AM 57.2667 -53.7167 47° Northeast 270 311 27,000  Level Gander Center
Sat 06:38:00 AM 57.3518 -53.5473 47° Northeast  Level FlightAware Approximate
Sat 06:45:00 AM 57.6749 -52.8932 47° Northeast  Level FlightAware Approximate
Sat 06:46:00 AM 57.7208 -52.7988 48° Northeast  Level FlightAware Approximate
Sat 06:47:00 AM 57.7666 -52.7042 48° Northeast  Level FlightAware Approximate
Sat 06:48:00 AM 57.8124 -52.6093 48° Northeast  Level FlightAware Approximate
Sat 06:49:00 AM 57.8580 -52.5142 48° Northeast  Level FlightAware Approximate
Sat 06:50:00 AM 57.9036 -52.4188 48° Northeast  Level FlightAware Approximate
Sat 06:51:00 AM 57.9492 -52.3233 48° Northeast  Level FlightAware Approximate
Sat 06:52:00 AM 57.9946 -52.2274 48° Northeast  Level FlightAware Approximate
Sat 06:53:00 AM 58.0400 -52.1314 48° Northeast  Level FlightAware Approximate
Sat 06:54:00 AM 58.0853 -52.0350 48° Northeast  Level FlightAware Approximate
Sat 06:55:00 AM 58.1305 -51.9385 48° Northeast  Level FlightAware Approximate
Sat 06:56:00 AM 58.1757 -51.8416 48° Northeast  Level FlightAware Approximate
Sat 06:57:00 AM 58.2208 -51.7446 49° Northeast  Level FlightAware Approximate
Sat 06:58:00 AM 58.2658 -51.6473 49° Northeast  Level FlightAware Approximate
Sat 06:59:00 AM 58.3107 -51.5497 49° Northeast  Level FlightAware Approximate
Sat 07:00:00 AM 58.3556 -51.4519 49° Northeast  Level FlightAware Approximate
Sat 07:01:00 AM 58.4004 -51.3539 49° Northeast  Level FlightAware Approximate
Sat 07:02:00 AM 58.4451 -51.2556 49° Northeast  Level FlightAware Approximate
Sat 07:03:00 AM 58.4898 -51.1570 49° Northeast  Level FlightAware Approximate
Sat 07:04:00 AM 58.5343 -51.0582 49° Northeast  Level FlightAware Approximate
Sat 07:05:00 AM 58.5788 -50.9592 49° Northeast  Level FlightAware Approximate
Sat 07:06:00 AM 58.6232 -50.8599 49° Northeast  Level FlightAware Approximate
Sat 07:07:00 AM 58.6676 -50.7603 49° Northeast  Level FlightAware Approximate
Sat 07:08:00 AM 58.7118 -50.6605 49° Northeast  Level FlightAware Approximate
Sat 07:09:00 AM 58.7560 -50.5605 50° Northeast  Level FlightAware Approximate
Sat 07:10:00 AM 58.8001 -50.4602 50° Northeast  Level FlightAware Approximate
Sat 07:11:00 AM 58.8441 -50.3596 50° Northeast  Level FlightAware Approximate
Sat 07:12:00 AM 58.8881 -50.2588 50° Northeast  Level FlightAware Approximate
Sat 07:13:00 AM 58.9320 -50.1577 50° Northeast  Level FlightAware Approximate
Sat 07:14:00 AM 58.9757 -50.0563 50° Northeast  Level FlightAware Approximate
Sat 07:15:00 AM 59.0214 -49.9583 45° Northeast  Level FlightAware Approximate
Sat 07:16:00 AM 59.0695 -49.8643 45° Northeast  Level FlightAware Approximate
Sat 07:17:00 AM 59.1176 -49.7701 45° Northeast  Level FlightAware Approximate
Sat 07:18:00 AM 59.1655 -49.6756 45° Northeast  Level FlightAware Approximate
Sat 07:19:00 AM 59.2134 -49.5808 45° Northeast  Level FlightAware Approximate
Sat 07:20:00 AM 59.2612 -49.4858 45° Northeast  Level FlightAware Approximate
Sat 07:21:00 AM 59.3090 -49.3906 45° Northeast  Level FlightAware Approximate
Sat 07:22:00 AM 59.3567 -49.2950 46° Northeast  Level FlightAware Approximate
Sat 07:23:00 AM 59.4043 -49.1992 46° Northeast  Level FlightAware Approximate
Sat 07:24:00 AM 59.4519 -49.1031 46° Northeast  Level FlightAware Approximate
Sat 07:25:00 AM 59.4993 -49.0067 46° Northeast  Level FlightAware Approximate
Sat 07:26:00 AM 59.5467 -48.9101 46° Northeast  Level FlightAware Approximate
Sat 07:27:00 AM 59.5941 -48.8132 46° Northeast  Level FlightAware Approximate
Sat 07:28:00 AM 59.6413 -48.7160 46° Northeast  Level FlightAware Approximate
Sat 07:29:00 AM 59.6885 -48.6186 46° Northeast  Level FlightAware Approximate
Sat 07:30:00 AM 59.7356 -48.5209 46° Northeast  Level FlightAware Approximate
Sat 07:31:00 AM 59.7827 -48.4229 46° Northeast  Level FlightAware Approximate
Sat 07:32:00 AM 59.8296 -48.3246 46° Northeast  Level FlightAware Approximate
Sat 07:33:00 AM 59.8765 -48.2261 47° Northeast  Level FlightAware Approximate
Sat 07:34:00 AM 59.9234 -48.1272 47° Northeast  Level FlightAware Approximate
Sat 07:35:00 AM 59.9701 -48.0281 47° Northeast  Level FlightAware Approximate
Sat 07:36:00 AM 60.0180 -47.9310 45° Northeast  Level FlightAware Approximate
Sat 07:37:00 AM 60.0662 -47.8345 45° Northeast  Level FlightAware Approximate
Sat 07:38:00 AM 60.1135 -47.7362 48° Northeast  Level FlightAware Approximate
Sat 07:39:00 AM 60.1588 -47.6338 48° Northeast  Level FlightAware Approximate
Sat 07:40:00 AM 60.2040 -47.5312 48° Northeast  Level FlightAware Approximate
Sat 07:41:00 AM 60.2492 -47.4282 49° Northeast  Level FlightAware Approximate
Sat 07:42:00 AM 60.2948 -47.3261 46° Northeast  Level FlightAware Approximate
Sat 07:43:00 AM 60.3422 -47.2271 46° Northeast  Level FlightAware Approximate
Sat 07:44:00 AM 60.3895 -47.1278 46° Northeast  Level FlightAware Approximate
Sat 07:45:00 AM 60.4367 -47.0281 46° Northeast  Level FlightAware Approximate
Sat 07:46:00 AM 60.4841 -46.9288 46° Northeast  Level FlightAware Approximate
Sat 07:47:00 AM 60.5316 -46.8293 46° Northeast  Level FlightAware Approximate
Sat 07:48:00 AM 60.5790 -46.7296 46° Northeast  Level FlightAware Approximate
Sat 07:49:00 AM 60.6259 -46.6289 48° Northeast  Level FlightAware Approximate
Sat 07:50:00 AM 60.6714 -46.5253 48° Northeast  Level FlightAware Approximate
Sat 07:51:00 AM 60.7168 -46.4213 48° Northeast  Level FlightAware Approximate
Sat 07:52:00 AM 60.7636 -46.3199 46° Northeast  Level FlightAware Approximate
Sat 07:53:00 AM 60.8111 -46.2197 46° Northeast  Level FlightAware Approximate
Sat 07:54:00 AM 60.8586 -46.1193 46° Northeast  Level FlightAware Approximate
Sat 07:55:00 AM 60.9017 -46.0115 56° Northeast  Level FlightAware Approximate
Sat 07:56:00 AM 60.9433 -45.9003 50° Northeast  Level FlightAware Approximate
Sat 07:57:00 AM 60.9872 -45.7932 40° Northeast  Level FlightAware Approximate
Sat 07:58:00 AM 61.0392 -45.7022 40° Northeast  Level FlightAware Approximate
Sat 07:59:00 AM 61.0831 -45.5950 52° Northeast  Level FlightAware Approximate
Sat 08:00:00 AM 61.1250 -45.4835 52° Northeast  Level FlightAware Approximate
Sat 08:01:00 AM 61.1500 -45.4167 52° Northeast  Level FlightAware Approximate
Sat 08:02:00 AM 61.1607 -45.4257 52° Northeast  Level Estimated
Sat 08:03:00 AM 61.1607 -45.4257 52° Northeast  Level Estimated
Sat 08:04:00 AM 61.1607 -45.4257 52° Northeast  Level Estimated
Sat 08:05:00 AM 61.1607 -45.4257 52° Northeast  Level Estimated
Sat 08:06:00 AM 61.1607 -45.4257 52° Northeast  Level Estimated
Sat 08:07:00 AM 61.1607 -45.4257 52° Northeast  Level Estimated
Sat 08:08:00 AM 61.1607 -45.4257 52° Northeast  Level Estimated
Sat 08:09:00 AM 61.1607 -45.4257 52° Northeast  Level Estimated
Sat 08:10:00 AM 61.1607 -45.4257 52° Northeast  Level Estimated
Sat 08:11:00 AM 61.1607 -45.4257 52° Northeast  Level Estimated
Sat 08:12:00 AM 61.1607 -45.4257 52° Northeast  Level Estimated
Sat 08:13:00 AM 61.1607 -45.4257 52° Northeast  Level Estimated
Sat 08:14:00 AM 61.1607 -45.4257 52° Northeast  Level Estimated
Sat 08:15:00 AM 61.1607 -45.4257 52° Northeast  Level Estimated
Sat 08:16:00 AM 61.1607 -45.4257 52° Northeast  Level Estimated
Sat 08:17:00 AM 61.1607 -45.4257 52° Northeast  Level Estimated

Login

Don't have an account? Register now (free) for customized features, flight alerts, and more!